createdAt,value
2022-12-08T00:01:22.616Z,13.43
2022-12-08T00:03:50.995Z,20.05
2022-12-08T00:06:48.458Z,15.57
2022-12-08T00:09:24.948Z,15.98
2022-12-08T00:12:11.565Z,15.10
2022-12-08T00:14:41.788Z,19.17
2022-12-08T00:17:10.922Z,16.08
2022-12-08T00:19:39.536Z,16.77
2022-12-08T00:22:07.261Z,17.23
2022-12-08T00:24:36.235Z,17.83
2022-12-08T00:27:03.192Z,18.65
2022-12-08T00:29:30.233Z,19.50
2022-12-08T00:31:57.250Z,16.35
2022-12-08T00:34:24.466Z,15.95
2022-12-08T00:36:51.387Z,17.38
2022-12-08T00:39:18.696Z,17.63
2022-12-08T00:42:04.381Z,18.00
2022-12-08T00:44:31.231Z,16.75
2022-12-08T00:46:58.218Z,20.40
2022-12-08T00:49:25.200Z,20.42
2022-12-08T00:51:52.409Z,18.45
2022-12-08T00:54:19.500Z,24.42
2022-12-08T00:56:46.708Z,20.45
2022-12-08T00:59:13.586Z,20.27
2022-12-08T01:01:40.596Z,19.42
2022-12-08T01:04:10.659Z,20.63
2022-12-08T01:06:38.580Z,17.90
2022-12-08T01:09:07.069Z,16.10
2022-12-08T01:11:34.481Z,19.92
2022-12-08T01:14:01.707Z,18.20
2022-12-08T01:16:31.112Z,18.90
2022-12-08T01:18:59.674Z,18.92
2022-12-08T01:21:27.008Z,23.92
2022-12-08T01:23:54.675Z,19.30
2022-12-08T01:26:22.226Z,20.13
2022-12-08T01:28:49.298Z,23.60
2022-12-08T01:31:19.595Z,17.45
2022-12-08T01:33:47.464Z,21.45
2022-12-08T01:36:30.290Z,21.55
2022-12-08T01:38:59.708Z,21.65
2022-12-08T01:41:29.748Z,21.08
2022-12-08T01:44:24.794Z,17.08
2022-12-08T01:46:54.306Z,19.08
2022-12-08T01:49:35.077Z,19.63
2022-12-08T01:52:01.943Z,17.83
2022-12-08T01:54:34.113Z,18.15
2022-12-08T01:57:40.496Z,15.68
2022-12-08T02:00:14.317Z,17.23
2022-12-08T02:02:53.220Z,19.35
2022-12-08T02:05:24.735Z,20.48
2022-12-08T02:07:53.256Z,20.90
2022-12-08T02:10:22.908Z,21.67
2022-12-08T02:12:52.955Z,27.00
2022-12-08T02:15:23.058Z,20.75
2022-12-08T02:18:16.251Z,16.70
2022-12-08T02:21:18.257Z,19.77
2022-12-08T02:24:00.109Z,18.48
2022-12-08T02:26:39.491Z,17.60
2022-12-08T02:29:29.440Z,19.27
2022-12-08T02:32:11.894Z,18.90
2022-12-08T02:34:38.774Z,23.58
2022-12-08T02:37:26.510Z,16.90
2022-12-08T02:40:12.004Z,19.42
2022-12-08T02:42:57.704Z,19.80
2022-12-08T02:45:47.418Z,21.48
2022-12-08T02:48:15.419Z,17.27
2022-12-08T02:50:42.863Z,17.45
2022-12-08T02:55:54.329Z,16.70
2022-12-08T02:58:36.327Z,13.75
2022-12-08T03:01:21.213Z,17.63
2022-12-08T03:04:08.635Z,13.90
2022-12-08T03:06:40.033Z,14.23
2022-12-08T03:09:15.769Z,18.00
2022-12-08T03:11:50.686Z,15.15
2022-12-08T03:14:18.191Z,14.27
2022-12-08T03:16:51.355Z,12.85
2022-12-08T03:19:24.065Z,13.25
2022-12-08T03:22:03.527Z,10.55
2022-12-08T03:24:37.897Z,11.82
2022-12-08T03:27:09.931Z,22.15
2022-12-08T03:29:37.041Z,11.07
2022-12-08T03:32:40.133Z,10.90
2022-12-08T03:35:12.506Z,10.70
2022-12-08T03:37:41.165Z,9.10
2022-12-08T03:40:10.814Z,11.98
2022-12-08T03:42:37.845Z,9.73
2022-12-08T03:45:05.586Z,10.00
2022-12-08T03:47:32.644Z,7.70
2022-12-08T03:49:59.556Z,8.75
2022-12-08T03:52:26.429Z,9.07
2022-12-08T03:54:53.392Z,7.47
2022-12-08T03:57:20.291Z,7.82
2022-12-08T03:59:47.203Z,8.50
2022-12-08T04:02:14.184Z,5.85
2022-12-08T04:04:40.999Z,7.97
2022-12-08T04:07:07.998Z,7.43
2022-12-08T04:09:34.936Z,7.88
2022-12-08T04:12:01.814Z,6.18
2022-12-08T04:14:28.807Z,7.53
2022-12-08T04:16:56.026Z,6.43
2022-12-08T04:19:23.045Z,6.57
2022-12-08T04:21:50.009Z,6.80
2022-12-08T04:24:16.927Z,7.30
2022-12-08T04:26:43.868Z,8.70
2022-12-08T04:29:10.728Z,7.18
2022-12-08T04:31:37.940Z,10.05
2022-12-08T04:34:05.119Z,8.20
2022-12-08T04:36:33.241Z,8.70
2022-12-08T04:39:03.437Z,6.15
2022-12-08T04:41:30.582Z,10.90
2022-12-08T04:43:58.593Z,9.02
2022-12-08T04:46:26.739Z,8.80
2022-12-08T04:48:54.064Z,9.50
2022-12-08T04:51:23.945Z,8.05
2022-12-08T04:53:58.923Z,8.00
2022-12-08T04:56:26.614Z,8.95
2022-12-08T04:58:54.137Z,10.27
2022-12-08T05:01:21.833Z,7.50
2022-12-08T05:03:50.560Z,6.40
2022-12-08T05:06:18.425Z,8.30
2022-12-08T05:08:45.977Z,9.52
2022-12-08T05:11:15.104Z,7.93
2022-12-08T05:13:42.508Z,6.93
2022-12-08T05:16:15.416Z,9.75
2022-12-08T05:18:44.188Z,8.55
2022-12-08T05:21:13.245Z,8.23
2022-12-08T05:23:45.126Z,7.53
2022-12-08T05:26:14.664Z,7.25
2022-12-08T05:28:48.577Z,7.22
2022-12-08T05:31:19.439Z,8.52
2022-12-08T05:34:02.426Z,7.00
2022-12-08T05:36:30.957Z,7.13
2022-12-08T05:39:01.840Z,7.78
2022-12-08T05:41:30.979Z,9.80
2022-12-08T05:44:03.743Z,8.68
2022-12-08T05:46:52.514Z,4.35
2022-12-08T05:52:41.066Z,8.35
2022-12-08T06:04:53.671Z,10.98
2022-12-08T06:17:29.714Z,9.98
2022-12-08T06:19:34.857Z,10.77
2022-12-08T06:22:39.712Z,9.93
2022-12-08T06:25:28.722Z,11.10
2022-12-08T06:28:33.166Z,11.35
2022-12-08T06:30:58.917Z,11.38
2022-12-08T06:33:28.948Z,9.85
2022-12-08T06:36:06.264Z,7.47
2022-12-08T06:38:40.504Z,11.85
2022-12-08T06:41:13.971Z,9.80
2022-12-08T06:44:06.720Z,8.25
2022-12-08T06:46:34.712Z,7.55
2022-12-08T06:49:16.363Z,7.97
2022-12-08T06:53:45.734Z,9.40
2022-12-08T07:55:36.582Z,4.65
2022-12-08T08:01:03.236Z,7.95
2022-12-08T08:03:34.202Z,4.68
2022-12-08T08:06:07.979Z,3.85
2022-12-08T08:09:17.607Z,6.30
2022-12-08T08:12:22.357Z,5.35
2022-12-08T08:15:25.215Z,4.85
2022-12-08T08:27:37.862Z,4.63
2022-12-08T09:30:34.749Z,3.40
2022-12-08T09:33:25.941Z,5.43
2022-12-08T09:39:11.729Z,4.72
2022-12-08T09:42:05.247Z,5.22
2022-12-08T09:46:36.114Z,4.95
2022-12-08T09:48:17.596Z,5.68
2022-12-08T09:50:55.372Z,4.45
2022-12-08T09:53:59.992Z,4.07
2022-12-08T09:56:33.784Z,3.65
2022-12-08T10:02:41.780Z,4.22
2022-12-08T10:05:15.887Z,2.90
2022-12-08T10:07:54.712Z,3.42
2022-12-08T10:10:46.310Z,3.28
2022-12-08T10:13:26.435Z,3.75
2022-12-08T10:16:40.055Z,4.03
2022-12-08T10:22:27.713Z,5.75
2022-12-08T10:25:29.760Z,4.80
2022-12-08T10:28:13.970Z,5.40
2022-12-08T10:30:44.295Z,4.13
2022-12-08T10:33:46.796Z,4.95
2022-12-08T10:46:46.006Z,3.85
2022-12-08T10:49:39.407Z,6.18
2022-12-08T10:52:59.892Z,2.90
2022-12-08T10:55:31.169Z,4.03
2022-12-08T10:57:59.227Z,5.30
2022-12-08T11:00:28.431Z,4.82
2022-12-08T11:03:02.843Z,4.03
2022-12-08T11:05:37.743Z,4.47
2022-12-08T11:08:07.443Z,3.45
2022-12-08T11:10:38.443Z,4.45
2022-12-08T11:13:40.079Z,3.72
2022-12-08T11:16:17.180Z,3.95
2022-12-08T11:18:49.269Z,2.38
2022-12-08T11:21:26.933Z,5.45
2022-12-08T11:24:37.330Z,5.82
2022-12-08T11:27:36.887Z,3.75
2022-12-08T11:46:37.477Z,3.90
2022-12-08T11:49:29.491Z,4.53
2022-12-08T11:52:27.838Z,5.30
2022-12-08T11:55:49.962Z,3.15
2022-12-08T12:04:26.157Z,5.85
2022-12-08T12:07:32.141Z,4.50
2022-12-08T12:10:38.076Z,5.43
2022-12-08T12:13:15.872Z,5.05
2022-12-08T12:16:14.610Z,5.03
2022-12-08T12:19:02.842Z,5.88
2022-12-08T12:22:03.093Z,4.63
2022-12-08T12:24:39.974Z,6.70
2022-12-08T12:27:16.493Z,5.63
2022-12-08T12:29:56.122Z,4.82
2022-12-08T12:33:17.457Z,6.30
2022-12-08T12:35:51.475Z,7.03
2022-12-08T12:38:54.095Z,8.13
2022-12-08T12:44:30.792Z,9.48
2022-12-08T12:47:10.227Z,9.70
2022-12-08T12:49:51.162Z,7.63
2022-12-08T12:52:26.561Z,9.45
2022-12-08T12:57:54.103Z,8.88
2022-12-08T13:00:27.563Z,8.43
2022-12-08T13:02:58.532Z,7.63
2022-12-08T13:06:02.239Z,8.35
2022-12-08T13:08:37.427Z,8.45
2022-12-08T13:11:13.149Z,9.85
2022-12-08T13:14:09.200Z,13.32
2022-12-08T13:16:45.384Z,12.95
2022-12-08T13:19:18.134Z,11.52
2022-12-08T13:21:47.082Z,12.75
2022-12-08T13:24:34.701Z,10.35
2022-12-08T13:27:12.279Z,11.30
2022-12-08T13:29:40.648Z,10.63
2022-12-08T13:32:08.631Z,8.77
2022-12-08T13:34:59.908Z,12.50
2022-12-08T13:41:00.387Z,11.98
2022-12-08T13:43:55.533Z,15.23
2022-12-08T13:47:32.894Z,16.25
2022-12-08T13:58:46.287Z,13.15
2022-12-08T14:01:41.227Z,12.77
2022-12-08T14:07:05.282Z,11.35
2022-12-08T14:09:37.707Z,14.65
2022-12-08T14:12:32.043Z,17.75
2022-12-08T14:15:10.748Z,15.23
2022-12-08T14:17:40.833Z,13.57
2022-12-08T14:20:16.091Z,17.00
2022-12-08T14:22:48.635Z,17.08
2022-12-08T14:25:17.171Z,16.45
2022-12-08T14:27:45.646Z,17.92
2022-12-08T14:30:31.035Z,28.92
2022-12-08T14:33:00.183Z,27.00
2022-12-08T14:35:36.385Z,42.50
2022-12-08T14:38:14.254Z,45.47
2022-12-08T14:40:45.200Z,31.30
2022-12-08T14:43:15.093Z,33.67
2022-12-08T14:45:46.731Z,38.83
2022-12-08T14:48:39.980Z,61.13
2022-12-08T14:51:22.265Z,55.25
2022-12-08T14:54:07.944Z,47.38
2022-12-08T14:56:45.665Z,27.23
2022-12-08T14:59:35.079Z,36.97
2022-12-08T15:02:22.026Z,18.35
2022-12-08T15:04:59.129Z,24.85
2022-12-08T15:07:51.571Z,39.10
2022-12-08T15:10:24.640Z,49.15
2022-12-08T15:13:01.268Z,37.20
2022-12-08T15:15:29.749Z,29.63
2022-12-08T15:18:22.091Z,30.08
2022-12-08T15:20:56.486Z,22.67
2022-12-08T15:24:01.410Z,18.30
2022-12-08T15:26:29.154Z,16.63
2022-12-08T15:29:00.880Z,14.50
2022-12-08T15:31:31.572Z,18.60
2022-12-08T15:33:59.357Z,16.95
2022-12-08T15:36:26.984Z,18.75
2022-12-08T15:38:56.995Z,24.95
2022-12-08T15:41:24.640Z,22.80
2022-12-08T15:43:52.522Z,19.90
2022-12-08T15:46:20.448Z,24.40
2022-12-08T15:48:48.056Z,27.00
2022-12-08T15:51:16.685Z,25.17
2022-12-08T15:53:47.322Z,25.48
2022-12-08T15:56:31.221Z,21.83
2022-12-08T15:59:05.387Z,14.10
2022-12-08T16:01:42.047Z,16.65
2022-12-08T16:04:59.702Z,15.38
2022-12-08T16:09:46.942Z,16.52
2022-12-08T16:13:48.317Z,17.27
2022-12-08T16:15:57.192Z,12.13
2022-12-08T16:18:30.352Z,15.85
2022-12-08T16:21:31.681Z,11.07
2022-12-08T16:23:46.390Z,9.13
2022-12-08T16:29:21.097Z,8.10
2022-12-08T16:31:49.043Z,9.20
2022-12-08T16:34:17.702Z,10.20
2022-12-08T16:36:46.279Z,17.90
2022-12-08T16:39:14.952Z,21.70
2022-12-08T16:42:01.604Z,18.55
2022-12-08T16:44:29.611Z,19.50
2022-12-08T16:46:58.163Z,19.63
2022-12-08T16:49:27.858Z,12.98
2022-12-08T16:51:55.633Z,19.00
2022-12-08T16:54:24.451Z,13.60
2022-12-08T16:56:51.772Z,16.98
2022-12-08T16:59:18.895Z,20.00
2022-12-08T17:01:46.597Z,13.10
2022-12-08T17:04:30.958Z,11.43
2022-12-08T17:06:59.716Z,13.75
2022-12-08T17:09:33.652Z,12.02
2022-12-08T17:12:03.939Z,14.85
2022-12-08T17:14:37.531Z,15.25
2022-12-08T17:17:06.877Z,14.80
2022-12-08T17:19:35.133Z,18.63
2022-12-08T17:22:02.727Z,14.10
2022-12-08T17:24:31.069Z,15.27
2022-12-08T17:27:05.764Z,18.60
2022-12-08T17:29:33.962Z,19.50
2022-12-08T17:32:06.598Z,16.63
2022-12-08T17:34:35.023Z,14.70
2022-12-08T17:37:05.134Z,17.08
2022-12-08T17:39:33.976Z,16.10
2022-12-08T17:42:02.504Z,14.63
2022-12-08T17:44:32.080Z,12.52
2022-12-08T17:47:01.925Z,13.23
2022-12-08T17:49:40.463Z,13.23
2022-12-08T17:52:08.429Z,13.63
2022-12-08T17:54:37.442Z,14.20
2022-12-08T17:57:05.663Z,14.10
2022-12-08T17:59:37.813Z,13.82
2022-12-08T18:02:05.219Z,11.20
2022-12-08T18:04:41.040Z,11.70
2022-12-08T18:07:09.101Z,11.80
2022-12-08T18:09:38.634Z,10.70
2022-12-08T18:12:06.784Z,12.90
2022-12-08T18:14:38.136Z,11.95
2022-12-08T18:17:05.385Z,11.75
2022-12-08T18:19:33.161Z,12.38
2022-12-08T18:22:00.851Z,14.57
2022-12-08T18:24:28.255Z,15.63
2022-12-08T18:26:56.726Z,9.00
2022-12-08T18:29:24.903Z,8.68
2022-12-08T18:31:53.537Z,13.10
2022-12-08T18:34:22.342Z,12.73
2022-12-08T18:36:58.835Z,10.25
2022-12-08T18:39:29.377Z,8.25
2022-12-08T18:41:58.673Z,10.05
2022-12-08T18:44:28.138Z,8.77
2022-12-08T18:46:55.727Z,11.65
2022-12-08T18:49:24.249Z,11.30
2022-12-08T18:51:52.553Z,8.23
2022-12-08T18:54:31.595Z,10.02
2022-12-08T18:57:18.462Z,7.63
2022-12-08T19:02:15.303Z,9.77
2022-12-08T19:04:44.684Z,10.30
2022-12-08T19:07:13.455Z,9.90
2022-12-08T19:09:45.692Z,9.98
2022-12-08T19:12:15.931Z,7.72
2022-12-08T19:14:45.370Z,7.50
2022-12-08T19:19:59.728Z,8.30
2022-12-08T19:22:31.964Z,7.28
2022-12-08T19:25:01.258Z,8.98
2022-12-08T19:27:29.338Z,7.78
2022-12-08T19:32:45.596Z,9.80
2022-12-08T19:35:16.206Z,8.32
2022-12-08T19:37:45.021Z,11.23
2022-12-08T19:40:32.731Z,9.82
2022-12-08T19:43:20.602Z,11.02
2022-12-08T19:45:57.744Z,9.88
2022-12-08T19:48:31.043Z,8.50
2022-12-08T19:51:05.126Z,11.77
2022-12-08T19:53:37.708Z,10.68
2022-12-08T19:56:10.983Z,9.57
2022-12-08T19:58:45.988Z,11.25
2022-12-08T20:03:58.282Z,11.75
2022-12-08T20:06:30.233Z,12.88
2022-12-08T20:08:58.923Z,10.85
2022-12-08T20:11:29.901Z,15.38
2022-12-08T20:14:02.345Z,11.90
2022-12-08T20:16:32.288Z,12.40
2022-12-08T20:19:02.367Z,12.57
2022-12-08T20:21:31.687Z,14.52
2022-12-08T20:23:59.862Z,12.85
2022-12-08T20:26:35.423Z,12.85
2022-12-08T20:31:37.414Z,13.85
2022-12-08T20:34:09.095Z,14.10
2022-12-08T20:36:36.864Z,15.35
2022-12-08T20:39:04.518Z,17.60
2022-12-08T20:41:39.305Z,17.13
2022-12-08T20:44:07.677Z,16.13
2022-12-08T20:46:35.960Z,15.40
2022-12-08T20:49:04.620Z,19.30
2022-12-08T20:51:35.231Z,16.42
2022-12-08T20:54:05.611Z,15.07
2022-12-08T20:56:32.872Z,15.55
2022-12-08T20:59:00.427Z,16.05
2022-12-08T21:01:27.718Z,13.07
2022-12-08T21:03:56.095Z,14.98
2022-12-08T21:06:25.612Z,15.60
2022-12-08T21:08:52.786Z,16.63
2022-12-08T21:11:21.439Z,23.95
2022-12-08T21:13:50.063Z,16.90
2022-12-08T21:16:18.018Z,22.40
2022-12-08T21:18:45.489Z,17.38
2022-12-08T21:21:15.459Z,15.35
2022-12-08T21:23:43.489Z,18.88
2022-12-08T21:26:16.624Z,20.20
2022-12-08T21:28:45.031Z,18.02
2022-12-08T21:31:16.189Z,18.75
2022-12-08T21:33:44.122Z,23.00
2022-12-08T21:36:14.635Z,18.65
2022-12-08T21:38:41.950Z,20.77
2022-12-08T21:41:12.247Z,24.20
2022-12-08T21:43:39.200Z,20.67
2022-12-08T21:46:06.952Z,23.75
2022-12-08T21:48:34.198Z,23.92
2022-12-08T21:51:05.774Z,20.52
2022-12-08T21:53:32.781Z,20.17
2022-12-08T21:55:59.822Z,20.05
2022-12-08T21:58:26.848Z,19.40
2022-12-08T22:00:54.299Z,21.00
2022-12-08T22:03:22.524Z,21.30
2022-12-08T22:05:49.693Z,21.42
2022-12-08T22:08:17.010Z,22.15
2022-12-08T22:10:48.248Z,24.00
2022-12-08T22:13:15.461Z,23.63
2022-12-08T22:15:42.608Z,24.55
2022-12-08T22:18:11.540Z,26.25
2022-12-08T22:20:43.889Z,26.30
2022-12-08T22:23:11.528Z,27.65
2022-12-08T22:25:38.709Z,28.27
2022-12-08T22:28:05.927Z,25.85
2022-12-08T22:30:38.642Z,31.40
2022-12-08T22:33:06.236Z,24.48
2022-12-08T22:35:33.327Z,29.23
2022-12-08T22:38:00.554Z,22.27
2022-12-08T22:40:27.580Z,35.15
2022-12-08T22:42:56.673Z,28.88
2022-12-08T22:45:23.817Z,26.70
2022-12-08T22:47:51.274Z,29.40
2022-12-08T22:50:18.115Z,29.02
2022-12-08T22:52:45.213Z,27.73
2022-12-08T22:55:12.252Z,25.02
2022-12-08T22:57:39.361Z,23.52
2022-12-08T23:00:07.859Z,29.05
2022-12-08T23:02:37.011Z,27.77
2022-12-08T23:05:05.385Z,28.30
2022-12-08T23:07:32.503Z,26.98
2022-12-08T23:09:59.423Z,26.63
2022-12-08T23:12:26.305Z,24.67
2022-12-08T23:14:53.201Z,24.83
2022-12-08T23:17:20.229Z,28.17
2022-12-08T23:19:47.348Z,26.58
2022-12-08T23:22:14.433Z,25.30
2022-12-08T23:24:41.677Z,27.65
2022-12-08T23:27:08.763Z,25.02
2022-12-08T23:29:35.689Z,23.90
2022-12-08T23:32:02.548Z,25.83
2022-12-08T23:34:29.664Z,25.63
2022-12-08T23:36:56.501Z,24.98
2022-12-08T23:39:24.795Z,26.60
2022-12-08T23:41:51.787Z,28.10
2022-12-08T23:44:18.932Z,24.70
2022-12-08T23:46:46.095Z,29.05
2022-12-08T23:49:13.131Z,26.30
2022-12-08T23:51:40.173Z,28.52
2022-12-08T23:54:07.523Z,25.35
2022-12-08T23:56:34.513Z,27.88
2022-12-08T23:59:01.790Z,27.65
